Time;durP1;ratioP1;P1;durP2;ratioP2;P2;SDS_P1;SDS_P2;PMS_P1;PMS_P2;Temp;Humidity;BMP_temperature;BMP_pressure;BME280_temperature;BME280_humidity;BME280_pressure;Samples;Min_cycle;Max_cycle;Signal;HPM_P1;HPM_P2
2022/07/23 00:00:27;;;;;;;7.30;6.32;;;23.50;52.10;;;;;;5033655;28;20211;-87
2022/07/23 00:02:57;;;;;;;7.30;6.50;;;23.50;51.70;;;;;;5033733;28;20283;-87
2022/07/23 00:05:26;;;;;;;7.45;6.57;;;23.40;50.70;;;;;;5032707;28;20205;-87
2022/07/23 00:07:53;;;;;;;8.40;6.90;;;23.30;50.70;;;;;;5040229;28;20226;-87
2022/07/23 00:10:19;;;;;;;8.45;7.03;;;23.30;51.20;;;;;;5043667;28;20202;-88
2022/07/23 00:12:46;;;;;;;7.45;6.78;;;23.30;52.10;;;;;;5044607;28;20274;-86
2022/07/23 00:15:13;;;;;;;7.75;6.85;;;23.30;51.20;;;;;;5031748;28;20282;-88
2022/07/23 00:17:40;;;;;;;7.22;6.53;;;23.30;52.00;;;;;;5034432;28;20229;-87
2022/07/23 00:20:08;;;;;;;6.72;6.13;;;23.20;52.20;;;;;;5034336;28;20215;-87
2022/07/23 00:22:37;;;;;;;6.28;5.68;;;23.10;50.30;;;;;;5036783;28;20215;-87
2022/07/23 00:25:04;;;;;;;7.30;6.20;;;23.10;50.40;;;;;;5037800;28;20293;-87
2022/07/23 00:27:31;;;;;;;6.82;6.13;;;23.00;51.10;;;;;;5031684;28;20211;-87
2022/07/23 00:29:57;;;;;;;7.38;6.30;;;22.90;52.10;;;;;;5024017;28;20299;-87
2022/07/23 00:32:24;;;;;;;7.40;6.70;;;23.00;52.40;;;;;;5027274;28;20237;-88
2022/07/23 00:34:51;;;;;;;7.57;6.88;;;22.90;51.50;;;;;;5041156;28;20209;-87
2022/07/23 00:37:18;;;;;;;6.55;5.95;;;22.90;53.00;;;;;;5039184;28;20225;-87
2022/07/23 00:39:46;;;;;;;7.25;6.47;;;22.80;51.60;;;;;;5028389;28;20198;-87
2022/07/23 00:42:13;;;;;;;7.40;6.70;;;22.80;52.50;;;;;;5032019;28;20236;-86
2022/07/23 00:44:40;;;;;;;6.97;5.82;;;22.80;52.30;;;;;;5026908;28;20199;-87
2022/07/23 00:47:07;;;;;;;6.90;6.20;;;22.80;49.00;;;;;;5032949;28;20687;-88
2022/07/23 00:49:34;;;;;;;6.20;5.43;;;22.80;49.40;;;;;;5023995;28;20208;-87
2022/07/23 00:52:03;;;;;;;10.30;9.27;;;22.90;48.80;;;;;;5034485;28;20226;-86
2022/07/23 00:54:30;;;;;;;6.65;6.05;;;22.90;51.50;;;;;;5044223;28;20256;-86
2022/07/23 00:56:58;;;;;;;6.18;5.57;;;23.00;50.00;;;;;;5028680;28;20199;-86
2022/07/23 00:59:35;;;;;;;7.03;6.38;;;23.00;50.00;;;;;;5041146;28;20202;-86
2022/07/23 01:02:02;;;;;;;6.35;5.72;;;23.00;50.60;;;;;;5040479;28;20198;-86
2022/07/23 01:04:35;;;;;;;7.63;6.00;;;23.00;50.60;;;;;;5028270;28;20215;-87
2022/07/23 01:07:05;;;;;;;6.97;6.30;;;23.00;51.60;;;;;;5032461;28;20202;-87
2022/07/23 01:09:32;;;;;;;6.80;6.20;;;23.00;52.30;;;;;;5028615;28;20203;-87
2022/07/23 01:12:00;;;;;;;6.90;6.22;;;23.00;52.30;;;;;;5034263;28;20198;-87
2022/07/23 01:14:27;;;;;;;6.60;6.00;;;23.00;52.50;;;;;;5029798;28;20194;-86
2022/07/23 01:16:59;;;;;;;7.05;6.45;;;23.00;52.40;;;;;;5028512;28;20202;-87
2022/07/23 01:19:26;;;;;;;7.15;5.95;;;23.00;51.70;;;;;;5042112;28;20191;-87
2022/07/23 01:21:55;;;;;;;6.90;6.30;;;23.00;52.80;;;;;;5035913;28;20377;-87
2022/07/23 01:24:23;;;;;;;7.95;7.10;;;23.10;52.20;;;;;;5033731;28;20232;-87
2022/07/23 01:26:51;;;;;;;9.27;7.32;;;23.20;52.70;;;;;;5038960;28;20728;-87
2022/07/23 01:29:19;;;;;;;19.00;8.02;;;23.30;49.80;;;;;;5036310;28;20202;-86
2022/07/23 01:31:46;;;;;;;11.45;7.28;;;23.40;46.10;;;;;;5028136;28;20219;-87
2022/07/23 01:34:13;;;;;;;13.15;6.95;;;23.30;43.00;;;;;;5041275;28;20263;-87
2022/07/23 01:36:40;;;;;;;27.73;6.50;;;23.10;40.40;;;;;;5044651;28;20714;-86
2022/07/23 01:39:07;;;;;;;33.03;7.40;;;22.70;42.00;;;;;;5041684;28;20255;-86
2022/07/23 01:41:36;;;;;;;29.60;6.43;;;22.30;43.10;;;;;;5040971;28;20642;-86
2022/07/23 01:44:03;;;;;;;17.88;4.72;;;22.10;41.80;;;;;;5046798;28;20210;-86
2022/07/23 01:46:30;;;;;;;7.55;4.00;;;22.10;40.40;;;;;;5046077;28;20271;-86
2022/07/23 01:48:57;;;;;;;10.70;4.53;;;22.00;39.80;;;;;;5039363;28;20203;-86
2022/07/23 01:51:29;;;;;;;5.45;4.13;;;22.00;41.50;;;;;;5041322;28;20282;-86
2022/07/23 01:53:59;;;;;;;5.10;4.50;;;22.00;43.00;;;;;;5041409;28;20270;-87
2022/07/23 01:56:48;;;;;;;7.45;4.97;;;21.90;45.20;;;;;;5040777;28;20270;-87
2022/07/23 01:59:15;;;;;;;5.32;4.82;;;21.80;47.80;;;;;;5042049;28;20213;-87
2022/07/23 02:01:42;;;;;;;6.97;4.88;;;21.80;49.60;;;;;;5049305;28;20212;-87
2022/07/23 02:04:09;;;;;;;5.47;4.97;;;21.70;50.20;;;;;;5043811;28;20218;-87
2022/07/23 02:06:36;;;;;;;7.40;4.78;;;21.60;51.00;;;;;;5041072;28;20203;-86
2022/07/23 02:09:11;;;;;;;5.10;4.57;;;21.50;52.30;;;;;;5041059;28;20222;-86
2022/07/23 02:11:38;;;;;;;6.63;4.60;;;21.50;53.20;;;;;;5046796;28;20249;-86
2022/07/23 02:14:18;;;;;;;7.43;5.65;;;21.40;57.20;;;;;;5033476;28;20199;-86
2022/07/23 02:16:45;;;;;;;6.15;5.60;;;21.20;59.00;;;;;;5038248;28;20274;-85
2022/07/23 02:19:23;;;;;;;5.65;4.80;;;21.10;63.00;;;;;;5039570;28;20228;-87
2022/07/23 02:21:50;;;;;;;6.82;5.47;;;20.90;65.10;;;;;;5039919;28;20199;-86
2022/07/23 02:24:17;;;;;;;5.78;4.60;;;20.80;69.40;;;;;;5046856;28;20214;-87
2022/07/23 02:26:44;;;;;;;5.03;4.20;;;20.70;70.80;;;;;;5044188;28;20274;-88
2022/07/23 02:29:11;;;;;;;4.18;3.78;;;20.70;69.00;;;;;;5044220;28;20209;-86
2022/07/23 02:31:39;;;;;;;5.15;3.58;;;20.70;67.00;;;;;;5037470;28;20306;-86
2022/07/23 02:34:06;;;;;;;5.85;3.45;;;20.70;68.10;;;;;;5038355;28;20202;-89
2022/07/23 02:36:33;;;;;;;3.95;3.22;;;20.70;71.80;;;;;;5030389;28;20198;-90
2022/07/23 02:39:00;;;;;;;5.05;3.05;;;20.60;72.20;;;;;;5031434;28;20213;-90
2022/07/23 02:41:27;;;;;;;3.88;3.10;;;20.60;75.10;;;;;;5036399;28;20202;-89
2022/07/23 02:43:54;;;;;;;7.15;3.30;;;20.60;74.00;;;;;;5038059;28;20225;-89
2022/07/23 02:46:21;;;;;;;3.22;2.90;;;20.50;77.10;;;;;;5034954;28;20299;-89
2022/07/23 02:48:49;;;;;;;2.97;2.55;;;20.50;77.30;;;;;;5036524;28;20230;-89
2022/07/23 02:51:16;;;;;;;3.83;3.00;;;20.40;77.50;;;;;;5034692;28;20266;-89
2022/07/23 02:53:43;;;;;;;3.55;3.20;;;20.40;81.20;;;;;;5039347;28;20210;-89
2022/07/23 02:56:11;;;;;;;3.20;2.80;;;20.40;81.10;;;;;;5036165;28;20273;-89
2022/07/23 02:58:38;;;;;;;7.97;3.10;;;20.40;81.10;;;;;;5036785;28;20209;-89
2022/07/23 03:01:06;;;;;;;5.10;3.33;;;20.40;82.20;;;;;;5041702;28;20226;-89
2022/07/23 03:03:33;;;;;;;4.78;3.58;;;20.30;86.90;;;;;;5042831;28;20219;-89
2022/07/23 03:06:01;;;;;;;6.38;4.10;;;20.10;90.00;;;;;;5040219;28;20202;-89
2022/07/23 03:08:28;;;;;;;4.80;3.90;;;19.80;91.80;;;;;;5038037;28;20213;-88
2022/07/23 03:10:55;;;;;;;4.75;3.47;;;19.70;92.60;;;;;;5040184;28;20234;-87
2022/07/23 03:13:22;;;;;;;5.07;3.70;;;19.70;92.40;;;;;;5039314;28;21698;-86
2022/07/23 03:15:49;;;;;;;8.07;3.75;;;19.60;92.50;;;;;;5038588;28;20202;-88
2022/07/23 03:18:16;;;;;;;4.57;4.18;;;19.40;93.40;;;;;;5028980;28;20205;-89
2022/07/23 03:20:42;;;;;;;7.15;4.25;;;19.30;94.50;;;;;;5029045;28;20281;-90
2022/07/23 03:23:11;;;;;;;5.57;4.22;;;19.30;94.80;;;;;;5030965;28;20227;-89
2022/07/23 03:25:37;;;;;;;6.13;4.32;;;19.20;95.50;;;;;;5038973;28;20199;-90
2022/07/23 03:28:05;;;;;;;5.45;4.50;;;19.30;95.60;;;;;;5040691;28;20213;-88
2022/07/23 03:30:31;;;;;;;5.63;4.13;;;19.20;96.00;;;;;;5041037;28;20210;-89
2022/07/23 03:32:58;;;;;;;4.82;4.35;;;19.20;96.40;;;;;;5035075;28;20233;-89
2022/07/23 03:35:25;;;;;;;5.20;4.53;;;19.20;96.60;;;;;;5026896;28;20306;-89
2022/07/23 03:37:52;;;;;;;5.82;4.65;;;19.20;95.60;;;;;;5034901;28;20195;-89
2022/07/23 03:40:24;;;;;;;4.95;4.47;;;19.20;95.40;;;;;;5035746;28;20293;-89
2022/07/23 03:42:52;;;;;;;5.85;5.13;;;19.10;95.80;;;;;;5037289;28;20202;-89
2022/07/23 03:45:23;;;;;;;5.40;4.45;;;19.10;96.00;;;;;;5036585;28;20206;-88
2022/07/23 03:47:50;;;;;;;6.68;4.70;;;19.00;96.30;;;;;;5032692;28;20627;-88
2022/07/23 03:50:17;;;;;;;6.40;4.95;;;18.90;96.40;;;;;;5032220;28;20737;-88
2022/07/23 03:52:44;;;;;;;5.50;4.60;;;18.90;95.30;;;;;;5035498;28;20203;-89
2022/07/23 03:55:11;;;;;;;6.13;4.93;;;18.90;94.90;;;;;;5037816;28;20733;-88
2022/07/23 03:57:39;;;;;;;5.97;5.32;;;19.00;94.40;;;;;;5034523;28;20294;-89
2022/07/23 04:00:12;;;;;;;6.68;5.30;;;19.00;94.10;;;;;;5042086;28;20203;-88
2022/07/23 04:02:40;;;;;;;6.30;5.70;;;19.10;94.70;;;;;;5028663;28;20635;-88
2022/07/23 04:05:08;;;;;;;8.55;5.30;;;19.10;94.60;;;;;;5029785;28;20226;-89
2022/07/23 04:07:35;;;;;;;6.10;4.85;;;19.20;94.50;;;;;;5040640;28;20680;-89
2022/07/23 04:10:02;;;;;;;5.55;5.05;;;19.20;94.80;;;;;;5041466;28;20206;-88
2022/07/23 04:12:29;;;;;;;6.03;5.50;;;19.40;94.90;;;;;;5038191;28;20221;-88
2022/07/23 04:14:57;;;;;;;5.78;5.13;;;19.30;95.30;;;;;;5034921;28;20213;-89
2022/07/23 04:17:25;;;;;;;5.82;4.97;;;19.20;95.30;;;;;;5039239;28;20269;-89
2022/07/23 04:19:52;;;;;;;6.18;5.57;;;19.20;95.50;;;;;;5030171;28;20209;-89
2022/07/23 04:22:18;;;;;;;6.60;5.93;;;19.10;96.00;;;;;;5032873;28;20244;-89
2022/07/23 04:24:47;;;;;;;6.53;5.82;;;19.00;96.70;;;;;;5031815;28;20226;-88
2022/07/23 04:27:14;;;;;;;5.68;5.15;;;19.00;97.10;;;;;;5036847;28;20212;-88
2022/07/23 04:29:41;;;;;;;6.15;5.13;;;19.00;97.00;;;;;;5033655;28;20737;-88
2022/07/23 04:32:09;;;;;;;6.10;5.60;;;19.20;96.40;;;;;;5029820;28;20240;-89
2022/07/23 04:34:36;;;;;;;6.53;5.13;;;19.30;96.20;;;;;;5032074;28;20662;-89
2022/07/23 04:37:03;;;;;;;5.80;5.20;;;19.60;95.30;;;;;;5038236;28;20207;-89
2022/07/23 04:39:30;;;;;;;5.70;5.10;;;19.70;95.10;;;;;;5034812;28;20238;-88
2022/07/23 04:42:11;;;;;;;7.35;5.55;;;19.70;94.70;;;;;;5040411;28;20246;-86
2022/07/23 04:44:41;;;;;;;7.45;5.30;;;19.70;94.80;;;;;;5051527;28;20242;-87
2022/07/23 04:47:12;;;;;;;5.85;5.30;;;19.60;95.10;;;;;;5042406;28;20278;-85
2022/07/23 04:49:39;;;;;;;6.72;5.30;;;19.50;95.50;;;;;;5040576;28;20260;-88
2022/07/23 04:52:06;;;;;;;5.82;5.32;;;19.40;95.70;;;;;;5032958;28;20267;-88
2022/07/23 04:54:33;;;;;;;6.32;5.50;;;19.40;95.60;;;;;;5033163;28;20211;-87
2022/07/23 04:57:00;;;;;;;7.13;5.43;;;19.30;95.20;;;;;;5032809;28;20584;-88
2022/07/23 04:59:27;;;;;;;6.85;6.18;;;19.20;95.20;;;;;;5040692;28;20199;-88
2022/07/23 05:01:54;;;;;;;6.10;5.30;;;19.20;95.20;;;;;;5026634;28;20297;-88
2022/07/23 05:04:22;;;;;;;6.65;5.95;;;19.20;95.60;;;;;;5033980;28;20282;-89
2022/07/23 05:06:49;;;;;;;6.32;5.32;;;19.20;95.90;;;;;;5035986;28;20326;-88
2022/07/23 05:09:16;;;;;;;6.53;5.93;;;19.30;96.20;;;;;;5032291;28;20207;-88
2022/07/23 05:11:47;;;;;;;6.57;5.57;;;19.30;95.90;;;;;;5025487;28;20195;-88
2022/07/23 05:14:14;;;;;;;6.72;6.03;;;19.30;95.80;;;;;;5033074;28;20577;-88
2022/07/23 05:16:41;;;;;;;7.47;5.90;;;19.40;95.50;;;;;;5029647;28;20210;-88
2022/07/23 05:19:08;;;;;;;8.23;5.78;;;19.40;95.60;;;;;;5040214;28;20544;-89
2022/07/23 05:21:36;;;;;;;6.25;5.70;;;19.50;95.50;;;;;;5031610;28;20213;-88
2022/07/23 05:24:06;;;;;;;6.28;5.68;;;19.50;94.90;;;;;;5036817;28;20222;-87
2022/07/23 05:26:35;;;;;;;5.68;5.18;;;19.60;94.70;;;;;;5040526;28;20270;-88
2022/07/23 05:29:02;;;;;;;7.30;5.80;;;19.50;94.80;;;;;;5041579;28;20206;-88
2022/07/23 05:31:29;;;;;;;7.97;5.53;;;19.60;94.90;;;;;;5042787;28;20214;-88
2022/07/23 05:33:56;;;;;;;7.32;5.82;;;19.50;94.50;;;;;;5034810;28;20249;-88
2022/07/23 05:36:23;;;;;;;6.68;5.90;;;19.50;94.80;;;;;;5025108;28;20219;-88
2022/07/23 05:38:55;;;;;;;6.85;6.15;;;19.50;95.10;;;;;;5039049;28;20206;-88
2022/07/23 05:41:22;;;;;;;7.20;5.78;;;19.50;94.60;;;;;;5037961;28;20279;-88
2022/07/23 05:43:53;;;;;;;7.13;6.43;;;19.50;94.40;;;;;;5036873;28;20222;-88
2022/07/23 05:46:20;;;;;;;8.18;6.40;;;19.50;94.20;;;;;;5038037;28;20560;-87
2022/07/23 05:48:59;;;;;;;7.97;6.57;;;19.60;94.30;;;;;;5036266;28;20832;-87
2022/07/23 05:51:26;;;;;;;7.45;6.70;;;19.70;94.20;;;;;;5036563;28;20210;-88
2022/07/23 05:53:55;;;;;;;7.15;5.97;;;19.70;94.20;;;;;;5042357;28;20608;-88
2022/07/23 05:56:22;;;;;;;8.77;6.32;;;19.80;94.60;;;;;;5037865;28;20218;-88
2022/07/23 05:58:49;;;;;;;7.05;6.43;;;19.80;94.60;;;;;;5033755;28;20242;-87
2022/07/23 06:01:53;;;;;;;7.15;6.28;;;19.90;94.50;;;;;;5039428;28;20261;-86
2022/07/23 06:04:23;;;;;;;8.05;6.75;;;20.00;93.80;;;;;;5042548;28;20286;-86
2022/07/23 06:06:53;;;;;;;7.93;6.60;;;20.10;94.00;;;;;;5046003;28;20203;-85
2022/07/23 06:09:21;;;;;;;7.22;6.40;;;20.10;94.10;;;;;;5041979;28;20297;-88
2022/07/23 06:11:48;;;;;;;8.55;6.55;;;20.10;93.60;;;;;;5036069;28;20262;-87
2022/07/23 06:14:17;;;;;;;7.22;6.53;;;20.10;93.30;;;;;;5039066;28;20269;-87
2022/07/23 06:16:47;;;;;;;6.95;6.25;;;20.10;92.90;;;;;;5038842;28;20263;-87
2022/07/23 06:19:14;;;;;;;7.65;6.93;;;20.10;92.70;;;;;;5041979;28;20697;-87
2022/07/23 06:21:41;;;;;;;9.40;6.90;;;20.00;92.60;;;;;;5042058;28;20200;-87
2022/07/23 06:24:17;;;;;;;7.72;6.75;;;19.90;92.60;;;;;;5037983;28;20270;-87
2022/07/23 06:26:49;;;;;;;7.65;6.93;;;19.90;92.60;;;;;;5035108;28;20283;-87
2022/07/23 06:29:15;;;;;;;7.63;6.85;;;19.80;93.20;;;;;;5038350;28;20266;-87
2022/07/23 06:31:59;;;;;;;7.70;6.75;;;19.80;93.20;;;;;;5039431;28;20648;-87
2022/07/23 06:34:35;;;;;;;8.95;7.13;;;19.80;93.90;;;;;;5040244;28;20205;-87
2022/07/23 06:37:02;;;;;;;8.55;6.88;;;19.80;93.80;;;;;;5035375;28;20203;-87
2022/07/23 06:39:29;;;;;;;8.52;7.45;;;19.90;94.40;;;;;;5040789;28;20213;-87
2022/07/23 06:41:57;;;;;;;13.18;10.23;;;19.90;94.20;;;;;;5036008;28;20194;-88
2022/07/23 06:44:24;;;;;;;7.68;6.88;;;20.00;94.00;;;;;;5039880;28;20318;-87
2022/07/23 06:46:51;;;;;;;8.82;7.72;;;20.00;93.10;;;;;;5036279;28;20230;-88
2022/07/23 06:49:18;;;;;;;8.98;7.50;;;20.10;92.80;;;;;;5041234;28;20262;-88
2022/07/23 06:51:45;;;;;;;8.43;6.85;;;20.10;93.40;;;;;;5037056;28;20691;-87
2022/07/23 06:54:12;;;;;;;7.45;6.65;;;20.20;92.70;;;;;;5036620;28;20271;-88
2022/07/23 06:56:39;;;;;;;8.40;7.00;;;20.30;91.70;;;;;;5040475;28;20260;-89
2022/07/23 06:59:13;;;;;;;8.00;7.30;;;20.40;92.10;;;;;;5037941;28;20230;-87
2022/07/23 07:01:41;;;;;;;7.88;7.10;;;20.40;92.10;;;;;;5031063;28;20195;-88
2022/07/23 07:04:08;;;;;;;11.30;8.88;;;20.60;92.10;;;;;;5027413;28;20236;-88
2022/07/23 07:06:35;;;;;;;8.13;6.93;;;20.70;92.30;;;;;;5029687;28;20213;-87
2022/07/23 07:09:05;;;;;;;7.35;6.57;;;21.00;91.90;;;;;;5024103;28;20224;-91
2022/07/23 07:11:35;;;;;;;6.90;6.30;;;21.20;90.40;;;;;;5017337;28;20604;-90
2022/07/23 07:14:04;;;;;;;7.47;6.78;;;21.30;89.70;;;;;;5022567;28;20256;-90
2022/07/23 07:16:32;;;;;;;7.00;6.40;;;21.30;89.40;;;;;;5021899;28;20205;-91
2022/07/23 07:18:59;;;;;;;6.75;6.15;;;21.40;87.80;;;;;;5021098;28;20591;-90
2022/07/23 07:21:26;;;;;;;7.65;6.95;;;21.50;87.00;;;;;;5021059;28;20225;-90
2022/07/23 07:23:52;;;;;;;7.38;6.13;;;21.50;86.50;;;;;;5015886;28;20208;-91
2022/07/23 07:26:19;;;;;;;6.78;6.18;;;21.50;86.80;;;;;;5014710;28;20213;-91
2022/07/23 07:28:47;;;;;;;7.05;6.35;;;21.70;83.90;;;;;;5006720;28;20693;-88
2022/07/23 07:31:14;;;;;;;7.30;6.60;;;21.80;85.10;;;;;;5016396;28;20216;-88
2022/07/23 07:33:44;;;;;;;7.20;6.53;;;22.00;82.90;;;;;;5012705;28;20213;-87
2022/07/23 07:36:11;;;;;;;7.00;6.40;;;22.10;82.30;;;;;;5009808;28;20230;-87
2022/07/23 07:38:38;;;;;;;8.43;6.68;;;22.20;82.40;;;;;;5015064;28;20199;-88
2022/07/23 07:41:04;;;;;;;7.18;6.47;;;22.20;80.30;;;;;;5020324;28;20763;-86
2022/07/23 07:43:31;;;;;;;7.70;6.90;;;22.30;78.50;;;;;;5020053;28;20221;-88
2022/07/23 07:45:59;;;;;;;8.18;7.40;;;22.20;79.90;;;;;;5015373;28;20237;-87
2022/07/23 07:48:26;;;;;;;7.82;7.10;;;22.10;80.20;;;;;;5020961;28;20210;-87
2022/07/23 07:50:54;;;;;;;7.50;6.80;;;22.00;82.20;;;;;;5021021;28;20214;-89
2022/07/23 07:53:21;;;;;;;6.97;6.30;;;21.80;82.10;;;;;;5028175;28;20202;-89
2022/07/23 07:55:48;;;;;;;8.35;7.18;;;21.60;84.20;;;;;;5016248;28;20828;-90
2022/07/23 07:58:15;;;;;;;8.13;7.03;;;21.60;85.40;;;;;;5018083;28;20677;-89
2022/07/23 08:00:42;;;;;;;7.65;6.85;;;21.60;85.90;;;;;;5012123;28;20289;-89
2022/07/23 08:03:09;;;;;;;7.70;7.00;;;21.60;85.20;;;;;;5019456;28;20217;-89
2022/07/23 08:05:36;;;;;;;8.00;7.20;;;21.70;84.30;;;;;;5023821;28;20309;-90
2022/07/23 08:08:05;;;;;;;7.43;6.78;;;21.70;85.20;;;;;;5020305;28;20214;-89
2022/07/23 08:10:32;;;;;;;8.07;6.88;;;21.70;84.80;;;;;;5001192;28;20230;-90
2022/07/23 08:13:00;;;;;;;7.10;6.40;;;21.70;82.10;;;;;;5021075;28;20205;-90
2022/07/23 08:15:29;;;;;;;7.22;6.53;;;21.70;84.30;;;;;;5022957;28;20213;-90
2022/07/23 08:17:57;;;;;;;7.25;6.65;;;21.80;82.10;;;;;;5022330;28;20202;-89
2022/07/23 08:20:25;;;;;;;7.53;6.82;;;21.90;82.10;;;;;;5021208;28;20223;-90
2022/07/23 08:22:53;;;;;;;7.78;6.57;;;21.90;82.20;;;;;;5024557;28;20202;-89
2022/07/23 08:25:25;;;;;;;7.65;6.93;;;22.10;80.10;;;;;;5023813;28;20268;-88
2022/07/23 08:27:52;;;;;;;9.10;6.78;;;22.10;78.70;;;;;;5021212;28;20209;-89
2022/07/23 08:30:20;;;;;;;7.00;6.40;;;22.20;78.60;;;;;;5021047;28;20199;-89
2022/07/23 08:32:55;;;;;;;7.55;6.72;;;22.30;75.80;;;;;;5007003;28;20238;-89
2022/07/23 08:35:29;;;;;;;7.03;6.32;;;22.40;75.10;;;;;;5020329;28;20210;-90
2022/07/23 08:38:02;;;;;;;6.85;6.15;;;22.30;76.80;;;;;;5031375;28;20665;-89
2022/07/23 08:40:45;;;;;;;7.82;6.57;;;22.40;77.40;;;;;;5031265;28;20213;-90
2022/07/23 08:43:13;;;;;;;8.30;6.32;;;22.40;77.60;;;;;;5029980;28;20202;-89
2022/07/23 08:45:56;;;;;;;9.40;6.68;;;22.60;75.40;;;;;;5033270;28;20211;-89
2022/07/23 08:48:24;;;;;;;6.45;5.90;;;22.80;75.80;;;;;;5040310;28;20650;-90
2022/07/23 08:51:01;;;;;;;7.10;6.38;;;23.00;72.90;;;;;;5032948;28;20205;-85
2022/07/23 08:53:42;;;;;;;7.30;6.13;;;23.20;65.80;;;;;;5026839;28;20203;-83
2022/07/23 08:56:13;;;;;;;6.45;5.85;;;23.50;65.90;;;;;;5021743;28;20237;-84
2022/07/23 09:02:23;;;;;;;7.35;5.95;;;23.50;64.50;;;;;;5023561;28;20248;-85
2022/07/23 09:08:13;;;;;;;6.85;6.25;;;23.20;66.00;;;;;;5021751;28;20269;-83
2022/07/23 09:10:52;;;;;;;6.60;6.07;;;23.10;71.10;;;;;;5023032;28;20241;-89
2022/07/23 09:13:33;;;;;;;7.88;7.13;;;22.90;66.90;;;;;;5023391;28;20202;-87
2022/07/23 09:16:02;;;;;;;17.20;15.40;;;22.90;70.90;;;;;;5028302;28;20205;-87
2022/07/23 09:18:31;;;;;;;9.05;8.00;;;22.90;70.40;;;;;;5023371;28;20206;-87
2022/07/23 09:21:15;;;;;;;10.45;8.68;;;22.90;69.70;;;;;;5018924;28;20194;-86
2022/07/23 09:23:51;;;;;;;6.70;6.10;;;22.90;66.70;;;;;;4965552;28;20223;-88
2022/07/23 09:26:36;;;;;;;10.05;8.18;;;23.30;63.80;;;;;;4964456;28;20224;-86
2022/07/23 09:29:31;;;;;;;8.00;7.10;;;23.50;62.30;;;;;;4972628;28;20228;-81
2022/07/23 09:32:22;;;;;;;10.20;9.15;;;23.80;59.40;;;;;;4969609;28;20217;-83
2022/07/23 09:34:53;;;;;;;6.93;6.32;;;24.00;59.50;;;;;;4961657;28;20201;-85
2022/07/23 09:37:29;;;;;;;6.07;5.55;;;24.30;58.30;;;;;;4963893;28;20197;-81
2022/07/23 09:40:05;;;;;;;7.00;5.28;;;25.10;50.50;;;;;;4972023;28;20208;-83
2022/07/23 09:42:56;;;;;;;6.07;5.57;;;25.90;45.50;;;;;;4972745;28;20288;-83
2022/07/23 09:45:31;;;;;;;5.60;5.10;;;27.20;37.60;;;;;;4968282;28;20224;-87
2022/07/23 09:48:12;;;;;;;5.95;5.45;;;28.70;27.50;;;;;;4966842;28;20203;-84
2022/07/23 09:50:39;;;;;;;6.57;5.97;;;29.90;24.50;;;;;;4966996;28;20192;-87
2022/07/23 09:53:25;;;;;;;5.88;5.38;;;30.00;22.70;;;;;;4965483;28;20197;-85
2022/07/23 09:55:55;;;;;;;6.82;6.22;;;30.00;21.60;;;;;;4966120;28;20231;-85
2022/07/23 09:58:25;;;;;;;6.78;5.60;;;30.10;23.50;;;;;;4965065;28;20196;-86
2022/07/23 10:00:54;;;;;;;6.15;5.55;;;30.40;20.70;;;;;;4990828;28;20202;-86
2022/07/23 10:03:21;;;;;;;5.50;5.00;;;31.00;20.40;;;;;;5025150;28;20685;-87
2022/07/23 10:05:49;;;;;;;6.10;5.60;;;32.20;17.60;;;;;;5026725;28;20221;-87
2022/07/23 10:08:19;;;;;;;5.47;5.05;;;31.90;17.50;;;;;;5032941;28;20270;-88
2022/07/23 10:10:47;;;;;;;5.60;5.20;;;32.60;15.90;;;;;;5026157;28;20212;-87
2022/07/23 10:16:10;;;;;;;5.82;5.32;;;33.00;15.90;;;;;;4960306;28;20264;-87
2022/07/23 10:18:37;;;;;;;6.80;5.70;;;32.40;16.10;;;;;;4959973;28;20197;-90
2022/07/23 10:21:07;;;;;;;5.78;5.15;;;32.00;14.60;;;;;;4952081;28;20201;-87
2022/07/23 10:23:40;;;;;;;5.75;5.30;;;31.50;15.40;;;;;;4961277;28;20204;-87
2022/07/23 10:26:13;;;;;;;8.10;5.32;;;30.80;17.00;;;;;;4964525;28;20619;-87
2022/07/23 10:29:03;;;;;;;5.93;5.43;;;30.50;16.90;;;;;;4966138;28;20219;-88
2022/07/23 10:31:41;;;;;;;6.15;5.65;;;30.40;16.80;;;;;;4964114;28;20188;-88
2022/07/23 10:34:18;;;;;;;5.93;5.43;;;31.10;17.10;;;;;;4960646;28;20287;-89
2022/07/23 10:36:50;;;;;;;5.97;5.47;;;31.60;16.40;;;;;;4964387;28;20199;-88
2022/07/23 10:39:23;;;;;;;6.13;5.47;;;32.50;14.10;;;;;;4969244;28;20196;-87
2022/07/23 10:41:50;;;;;;;5.30;4.90;;;32.00;15.00;;;;;;4961554;28;20214;-90
2022/07/23 10:44:19;;;;;;;6.43;5.60;;;31.40;16.30;;;;;;4965219;28;20215;-86
2022/07/23 10:47:13;;;;;;;8.13;5.57;;;30.80;17.00;;;;;;4972807;28;20219;-85
2022/07/23 10:49:42;;;;;;;5.65;4.95;;;30.10;16.70;;;;;;4973324;28;20200;-86
2022/07/23 10:52:22;;;;;;;5.90;5.40;;;29.40;16.30;;;;;;5005499;28;20775;-86
2022/07/23 10:54:55;;;;;;;7.18;4.93;;;29.10;18.80;;;;;;5021580;28;20202;-85
2022/07/23 10:57:23;;;;;;;5.68;5.18;;;28.90;19.20;;;;;;5024031;28;20579;-87
2022/07/23 11:00:20;;;;;;;8.30;5.55;;;28.60;19.60;;;;;;5023662;28;20202;-85
2022/07/23 11:02:50;;;;;;;5.55;4.63;;;28.10;20.00;;;;;;4965101;28;20200;-86
2022/07/23 11:05:19;;;;;;;6.80;5.30;;;27.90;20.70;;;;;;4961636;28;20204;-87
2022/07/23 11:08:16;;;;;;;6.38;4.78;;;28.00;21.80;;;;;;4963057;28;20200;-87
2022/07/23 11:10:51;;;;;;;6.60;4.88;;;28.00;19.50;;;;;;4966831;28;20239;-85
2022/07/23 11:13:38;;;;;;;5.38;4.88;;;27.80;21.80;;;;;;4969550;28;20340;-87
2022/07/23 11:16:26;;;;;;;5.65;4.53;;;27.60;22.10;;;;;;4968220;28;20268;-86
2022/07/23 11:19:18;;;;;;;6.10;5.00;;;27.60;21.50;;;;;;4962979;28;20208;-85
2022/07/23 11:21:49;;;;;;;5.80;4.90;;;27.50;23.00;;;;;;4979070;28;20208;-87
2022/07/23 11:24:24;;;;;;;6.80;5.00;;;27.50;22.70;;;;;;4974974;28;20667;-87
2022/07/23 11:27:37;;;;;;;5.28;4.80;;;27.40;22.90;;;;;;4977047;28;20235;-89
2022/07/23 11:30:38;;;;;;;8.27;5.15;;;27.20;22.20;;;;;;4972663;28;20283;-87
2022/07/23 11:33:26;;;;;;;5.18;4.70;;;27.00;23.80;;;;;;4970292;28;20223;-84
2022/07/23 11:42:39;;;;;;;6.00;5.40;;;26.50;25.40;;;;;;5026632;28;20194;-84
2022/07/23 11:45:11;;;;;;;6.20;5.60;;;26.30;25.80;;;;;;5027997;28;20202;-86
2022/07/23 11:47:38;;;;;;;6.10;5.50;;;26.10;26.00;;;;;;5021252;28;20211;-85
2022/07/23 11:50:07;;;;;;;7.05;5.78;;;26.10;26.20;;;;;;5028919;28;20203;-83
2022/07/23 11:52:35;;;;;;;6.25;5.72;;;25.90;27.80;;;;;;5027700;28;20201;-83
2022/07/23 11:55:08;;;;;;;6.05;5.50;;;25.80;28.00;;;;;;5023992;28;20226;-83
2022/07/23 11:57:37;;;;;;;6.68;6.07;;;25.70;28.30;;;;;;5025932;28;20725;-86
2022/07/23 12:00:10;;;;;;;7.45;5.75;;;25.60;28.30;;;;;;5021250;28;20206;-84
2022/07/23 12:02:37;;;;;;;6.65;5.95;;;25.70;29.60;;;;;;5026444;28;20252;-88
2022/07/23 12:05:05;;;;;;;6.10;5.55;;;25.70;28.80;;;;;;5032511;28;20278;-87
2022/07/23 12:07:44;;;;;;;6.75;6.03;;;25.70;29.30;;;;;;5040316;28;20222;-87
2022/07/23 12:10:15;;;;;;;6.78;5.90;;;25.70;29.70;;;;;;5047770;28;20209;-88
2022/07/23 12:12:51;;;;;;;6.88;6.07;;;25.70;30.30;;;;;;5054882;28;20201;-88
2022/07/23 12:15:22;;;;;;;10.55;9.45;;;25.80;29.60;;;;;;5034271;28;20186;-84
2022/07/23 12:17:50;;;;;;;24.63;19.65;;;25.80;30.70;;;;;;5034794;28;20219;-84
2022/07/23 12:20:25;;;;;;;6.90;6.20;;;25.60;31.20;;;;;;5028964;28;20201;-86
2022/07/23 12:22:54;;;;;;;7.88;5.68;;;25.60;32.80;;;;;;5040943;28;20557;-85
2022/07/23 12:25:22;;;;;;;6.65;5.72;;;25.50;33.30;;;;;;5037535;28;20203;-86
2022/07/23 12:28:00;;;;;;;7.60;6.72;;;25.40;34.20;;;;;;5040696;28;20209;-80
2022/07/23 12:30:32;;;;;;;6.40;5.78;;;25.50;33.40;;;;;;5037528;28;20187;-81
2022/07/23 12:33:00;;;;;;;5.88;5.35;;;25.50;32.90;;;;;;5031788;28;20297;-85
2022/07/23 12:35:34;;;;;;;6.70;6.13;;;25.40;33.30;;;;;;5029256;28;20211;-82
2022/07/23 12:38:08;;;;;;;6.65;5.70;;;25.30;34.50;;;;;;5028036;28;20190;-83
2022/07/23 12:40:37;;;;;;;6.80;5.65;;;25.30;34.10;;;;;;5029617;28;20198;-83
2022/07/23 12:43:05;;;;;;;6.68;5.53;;;25.20;35.20;;;;;;5026367;28;20200;-84
2022/07/23 12:45:49;;;;;;;40.33;36.10;;;25.10;36.30;;;;;;5033936;28;20195;-83
2022/07/23 12:48:24;;;;;;;77.70;69.88;;;25.20;36.30;;;;;;5032948;28;20433;-84
2022/07/23 12:51:31;;;;;;;14.32;12.85;;;25.30;35.40;;;;;;5031620;28;20695;-85
2022/07/23 12:54:05;;;;;;;15.63;12.55;;;25.30;35.10;;;;;;5038245;28;20263;-85
2022/07/23 12:56:45;;;;;;;10.63;9.55;;;25.20;34.20;;;;;;5039388;28;20206;-87
2022/07/23 12:59:24;;;;;;;17.90;16.08;;;25.10;36.30;;;;;;5036819;28;20543;-87
2022/07/23 13:02:01;;;;;;;16.88;11.82;;;25.00;36.20;;;;;;5039868;28;20194;-87
2022/07/23 13:04:28;;;;;;;7.80;6.03;;;25.00;36.20;;;;;;5033266;28;20203;-86
2022/07/23 13:07:06;;;;;;;6.97;6.05;;;24.90;36.20;;;;;;5038040;28;20214;-85
2022/07/23 13:09:34;;;;;;;6.20;5.60;;;25.10;36.30;;;;;;5027921;28;20357;-88
2022/07/23 13:12:01;;;;;;;6.43;5.80;;;25.30;36.40;;;;;;5030797;28;20589;-87
2022/07/23 13:14:30;;;;;;;7.22;6.63;;;25.50;34.30;;;;;;5036648;28;20194;-86
2022/07/23 13:16:57;;;;;;;12.65;11.18;;;25.70;33.00;;;;;;5023250;28;20221;-85
2022/07/23 13:19:26;;;;;;;10.20;8.38;;;25.90;32.20;;;;;;5027627;28;20690;-86